createdAt,value
2023-05-27T00:00:36.147Z,7.56
2023-05-27T00:18:36.564Z,7.41
2023-05-27T00:19:36.408Z,7.37
2023-05-27T00:20:36.508Z,7.36
2023-05-27T00:21:36.430Z,7.34
2023-05-27T00:22:36.445Z,7.33
2023-05-27T00:23:36.446Z,7.31
2023-05-27T00:24:36.455Z,7.29
2023-05-27T00:25:36.470Z,7.30
2023-05-27T00:26:36.478Z,7.29
2023-05-27T00:27:36.504Z,7.32
2023-05-27T00:28:36.496Z,7.27
2023-05-27T00:29:36.515Z,7.23
2023-05-27T00:30:36.522Z,7.24
2023-05-27T00:31:36.547Z,7.24
2023-05-27T00:32:36.562Z,7.23
2023-05-27T00:33:36.560Z,7.25
2023-05-27T00:34:36.571Z,7.24
2023-05-27T00:35:36.603Z,7.25
2023-05-27T00:36:36.611Z,7.25
2023-05-27T00:37:36.615Z,7.23
2023-05-27T00:38:36.629Z,7.22
2023-05-27T00:39:36.645Z,7.21
2023-05-27T00:40:36.657Z,7.20
2023-05-27T00:41:36.673Z,7.19
2023-05-27T00:42:36.681Z,7.19
2023-05-27T00:43:36.698Z,7.18
2023-05-27T00:44:36.696Z,7.13
2023-05-27T00:45:36.751Z,7.10
2023-05-27T00:46:36.790Z,7.10
2023-05-27T00:47:36.744Z,7.11
2023-05-27T00:48:36.736Z,7.07
2023-05-27T00:49:36.742Z,7.10
2023-05-27T00:50:36.750Z,7.06
2023-05-27T00:51:36.764Z,7.07
2023-05-27T00:52:36.788Z,7.06
2023-05-27T00:53:36.794Z,7.04
2023-05-27T00:54:36.800Z,7.01
2023-05-27T00:55:36.818Z,7.01
2023-05-27T00:56:36.883Z,7.03
2023-05-27T00:57:36.836Z,7.00
2023-05-27T00:58:36.859Z,7.00
2023-05-27T01:16:37.305Z,6.88
2023-05-27T01:17:37.053Z,6.91
2023-05-27T01:18:37.056Z,6.93
2023-05-27T01:19:37.089Z,6.92
2023-05-27T01:20:37.098Z,6.87
2023-05-27T01:21:37.086Z,6.87
2023-05-27T01:22:37.116Z,6.90
2023-05-27T01:23:37.110Z,6.87
2023-05-27T01:24:37.120Z,6.86
2023-05-27T01:25:37.124Z,6.85
2023-05-27T01:26:37.141Z,6.86
2023-05-27T01:27:37.171Z,6.84
2023-05-27T01:28:37.178Z,6.85
2023-05-27T01:29:37.190Z,6.83
2023-05-27T01:30:37.216Z,6.82
2023-05-27T01:31:37.269Z,6.79
2023-05-27T01:32:37.224Z,6.75
2023-05-27T01:33:37.238Z,6.74
2023-05-27T01:34:37.271Z,6.76
2023-05-27T01:35:37.267Z,6.76
2023-05-27T01:36:37.280Z,6.71
2023-05-27T01:37:37.289Z,6.73
2023-05-27T01:38:37.307Z,6.72
2023-05-27T01:39:37.318Z,6.70
2023-05-27T01:40:37.330Z,6.68
2023-05-27T01:41:37.335Z,6.69
2023-05-27T01:42:37.351Z,6.70
2023-05-27T01:43:37.358Z,6.71
2023-05-27T01:44:37.372Z,6.70
2023-05-27T01:45:37.395Z,6.70
2023-05-27T01:46:37.439Z,6.64
2023-05-27T01:47:37.449Z,6.62
2023-05-27T01:48:37.440Z,6.62
2023-05-27T01:49:37.455Z,6.58
2023-05-27T01:50:37.462Z,6.56
2023-05-27T01:51:37.473Z,6.53
2023-05-27T01:52:37.480Z,6.54
2023-05-27T01:53:37.497Z,6.52
2023-05-27T01:54:37.513Z,6.51
2023-05-27T01:55:37.519Z,6.50
2023-05-27T01:56:37.523Z,6.53
2023-05-27T01:57:37.539Z,6.52
2023-05-27T01:58:37.552Z,6.45
2023-05-27T01:59:37.559Z,6.48
2023-05-27T02:00:37.578Z,6.43
2023-05-27T02:01:37.655Z,6.46
2023-05-27T02:02:37.631Z,6.47
2023-05-27T02:03:37.672Z,6.47
2023-05-27T02:04:37.613Z,6.45
2023-05-27T02:05:37.623Z,6.46
2023-05-27T02:06:37.626Z,6.46
2023-05-27T02:07:37.646Z,6.48
2023-05-27T02:08:37.652Z,6.46
2023-05-27T02:09:37.669Z,6.47
2023-05-27T02:10:37.689Z,6.51
2023-05-27T02:11:37.713Z,6.50
2023-05-27T02:12:37.724Z,6.48
2023-05-27T02:13:37.751Z,6.45
2023-05-27T02:14:37.761Z,6.44
2023-05-27T02:15:37.782Z,6.48
2023-05-27T02:16:37.814Z,6.46
2023-05-27T02:17:37.845Z,6.45
2023-05-27T02:18:37.803Z,6.43
2023-05-27T02:19:37.815Z,6.39
2023-05-27T02:20:37.883Z,6.43
2023-05-27T02:21:37.852Z,6.40
2023-05-27T02:22:37.865Z,6.37
2023-05-27T02:23:37.865Z,6.37
2023-05-27T02:24:37.886Z,6.37
2023-05-27T02:25:37.908Z,6.36
2023-05-27T02:26:37.916Z,6.37
2023-05-27T02:27:37.928Z,6.35
2023-05-27T02:28:37.942Z,6.36
2023-05-27T02:29:37.945Z,6.37
2023-05-27T02:30:37.985Z,6.36
2023-05-27T02:31:38.042Z,6.35
2023-05-27T02:32:38.026Z,6.34
2023-05-27T02:33:38.008Z,6.32
2023-05-27T02:34:38.022Z,6.32
2023-05-27T02:35:38.028Z,6.32
2023-05-27T02:36:38.046Z,6.31
2023-05-27T02:37:38.065Z,6.30
2023-05-27T02:38:38.083Z,6.30
2023-05-27T02:39:38.089Z,6.31
2023-05-27T02:40:38.106Z,6.28
2023-05-27T02:41:38.124Z,6.31
2023-05-27T02:42:38.132Z,6.26
2023-05-27T02:43:38.137Z,6.25
2023-05-27T02:44:38.147Z,6.23
2023-05-27T02:45:38.163Z,6.26
2023-05-27T02:46:38.199Z,6.24
2023-05-27T02:47:38.225Z,6.24
2023-05-27T02:48:38.210Z,6.22
2023-05-27T02:49:38.227Z,6.22
2023-05-27T02:50:38.242Z,6.22
2023-05-27T02:51:38.251Z,6.19
2023-05-27T02:52:38.271Z,6.20
2023-05-27T02:53:38.275Z,6.19
2023-05-27T02:54:38.280Z,6.17
2023-05-27T02:55:38.289Z,6.15
2023-05-27T02:56:38.308Z,6.16
2023-05-27T02:57:38.325Z,6.19
2023-05-27T02:58:38.340Z,6.22
2023-05-27T02:59:38.344Z,6.24
2023-05-27T03:00:38.346Z,6.19
2023-05-27T03:01:38.370Z,6.17
2023-05-27T03:02:38.420Z,6.17
2023-05-27T03:03:38.482Z,6.17
2023-05-27T03:04:38.391Z,6.18
2023-05-27T03:05:38.402Z,6.18
2023-05-27T03:06:38.419Z,6.18
2023-05-27T03:07:38.423Z,6.19
2023-05-27T03:08:38.450Z,6.20
2023-05-27T03:09:38.456Z,6.18
2023-05-27T03:10:38.481Z,6.19
2023-05-27T03:11:38.484Z,6.22
2023-05-27T03:12:38.491Z,6.20
2023-05-27T03:13:38.495Z,6.17
2023-05-27T03:14:38.514Z,6.20
2023-05-27T03:15:38.523Z,6.19
2023-05-27T03:16:38.569Z,6.17
2023-05-27T03:17:38.570Z,6.20
2023-05-27T03:18:38.560Z,6.20
2023-05-27T03:19:38.595Z,6.22
2023-05-27T03:20:38.618Z,6.22
2023-05-27T03:21:38.607Z,6.17
2023-05-27T03:22:38.622Z,6.19
2023-05-27T03:23:38.638Z,6.18
2023-05-27T03:24:38.652Z,6.20
2023-05-27T03:25:38.732Z,6.19
2023-05-27T03:26:38.680Z,6.24
2023-05-27T03:27:38.694Z,6.21
2023-05-27T03:28:38.718Z,6.23
2023-05-27T03:29:38.722Z,6.25
2023-05-27T03:30:38.737Z,6.24
2023-05-27T03:31:38.752Z,6.25
2023-05-27T03:32:38.778Z,6.23
2023-05-27T03:33:38.773Z,6.26
2023-05-27T03:34:38.776Z,6.27
2023-05-27T03:35:38.788Z,6.29
2023-05-27T03:36:38.805Z,6.30
2023-05-27T03:37:38.817Z,6.34
2023-05-27T03:38:38.838Z,6.30
2023-05-27T03:39:38.845Z,6.33
2023-05-27T03:40:38.863Z,6.36
2023-05-27T03:41:38.872Z,6.36
2023-05-27T03:42:38.891Z,6.38
2023-05-27T03:43:38.902Z,6.36
2023-05-27T03:44:38.921Z,6.37
2023-05-27T03:45:38.943Z,6.38
2023-05-27T03:46:38.976Z,6.40
2023-05-27T03:47:38.979Z,6.41
2023-05-27T03:48:38.971Z,6.49
2023-05-27T03:49:38.981Z,6.42
2023-05-27T03:50:39.184Z,6.44
2023-05-27T03:51:39.010Z,6.44
2023-05-27T03:52:39.018Z,6.46
2023-05-27T03:53:39.038Z,6.51
2023-05-27T03:54:39.044Z,6.52
2023-05-27T03:55:39.067Z,6.51
2023-05-27T03:56:39.073Z,6.50
2023-05-27T03:57:39.084Z,6.49
2023-05-27T03:58:39.106Z,6.52
2023-05-27T03:59:39.113Z,6.53
2023-05-27T04:00:39.135Z,6.56
2023-05-27T04:01:39.150Z,6.55
2023-05-27T04:02:39.222Z,6.55
2023-05-27T04:03:39.240Z,6.58
2023-05-27T04:04:39.249Z,6.60
2023-05-27T04:05:39.192Z,6.60
2023-05-27T04:06:39.205Z,6.60
2023-05-27T04:07:39.212Z,6.62
2023-05-27T04:08:39.226Z,6.65
2023-05-27T04:09:39.241Z,6.66
2023-05-27T04:10:39.253Z,6.70
2023-05-27T04:11:39.267Z,6.69
2023-05-27T04:12:39.267Z,6.68
2023-05-27T04:13:39.272Z,6.70
2023-05-27T04:14:39.284Z,6.73
2023-05-27T04:15:39.288Z,6.77
2023-05-27T04:16:39.316Z,6.78
2023-05-27T04:17:39.303Z,6.83
2023-05-27T04:18:39.316Z,6.86
2023-05-27T04:19:39.314Z,6.86
2023-05-27T04:20:39.368Z,6.88
2023-05-27T04:21:39.352Z,6.91
2023-05-27T04:22:39.337Z,6.94
2023-05-27T04:23:39.342Z,6.96
2023-05-27T04:24:39.351Z,6.99
2023-05-27T04:25:39.354Z,7.02
2023-05-27T04:26:39.364Z,7.06
2023-05-27T04:27:39.364Z,7.06
2023-05-27T04:28:39.370Z,7.11
2023-05-27T04:29:39.416Z,7.16
2023-05-27T04:30:39.382Z,7.15
2023-05-27T04:31:39.412Z,7.15
2023-05-27T04:32:39.544Z,7.18
2023-05-27T04:33:39.402Z,7.21
2023-05-27T04:34:39.407Z,7.23
2023-05-27T04:35:39.416Z,7.27
2023-05-27T04:36:39.424Z,7.29
2023-05-27T04:37:39.427Z,7.34
2023-05-27T04:38:39.439Z,7.32
2023-05-27T04:39:39.441Z,7.38
2023-05-27T04:40:39.449Z,7.39
2023-05-27T04:41:39.476Z,7.44
2023-05-27T04:42:39.485Z,7.47
2023-05-27T04:43:39.470Z,7.50
2023-05-27T04:44:39.472Z,7.54
2023-05-27T04:45:39.482Z,7.55
2023-05-27T04:46:39.513Z,7.59
2023-05-27T04:47:39.896Z,7.62
2023-05-27T04:48:39.495Z,7.62
2023-05-27T04:49:39.517Z,7.66
2023-05-27T04:50:39.507Z,7.68
2023-05-27T04:51:39.565Z,7.70
2023-05-27T04:52:39.544Z,7.71
2023-05-27T04:53:39.530Z,7.75
2023-05-27T04:54:39.540Z,7.78
2023-05-27T04:55:39.544Z,7.78
2023-05-27T04:56:39.547Z,7.81
2023-05-27T04:57:39.556Z,7.83
2023-05-27T04:58:39.565Z,7.84
2023-05-27T04:59:39.568Z,7.88
2023-05-27T05:00:39.572Z,7.90
2023-05-27T05:01:39.637Z,7.92
2023-05-27T05:02:39.603Z,7.94
2023-05-27T05:03:39.631Z,7.95
2023-05-27T05:04:39.595Z,7.97
2023-05-27T05:05:41.050Z,7.97
2023-05-27T05:06:39.606Z,8.01
2023-05-27T05:07:39.614Z,8.05
2023-05-27T05:08:39.619Z,8.10
2023-05-27T05:09:39.625Z,8.08
2023-05-27T05:10:39.632Z,8.09
2023-05-27T05:11:39.639Z,8.13
2023-05-27T05:12:39.650Z,8.16
2023-05-27T05:13:39.658Z,8.18
2023-05-27T05:14:39.668Z,8.20
2023-05-27T05:15:39.680Z,8.22
2023-05-27T05:16:39.699Z,8.26
2023-05-27T05:17:39.735Z,8.31
2023-05-27T05:18:39.696Z,8.31
2023-05-27T05:19:39.715Z,8.33
2023-05-27T05:20:39.742Z,8.34
2023-05-27T05:21:39.717Z,8.34
2023-05-27T05:22:39.735Z,8.39
2023-05-27T05:23:39.741Z,8.43
2023-05-27T05:24:39.740Z,8.46
2023-05-27T05:25:39.763Z,8.47
2023-05-27T05:26:39.751Z,8.51
2023-05-27T05:27:39.757Z,8.52
2023-05-27T05:28:39.765Z,8.57
2023-05-27T05:29:39.771Z,8.61
2023-05-27T05:30:39.778Z,8.63
2023-05-27T05:31:39.798Z,8.68
2023-05-27T05:32:39.847Z,8.70
2023-05-27T05:33:39.796Z,8.74
2023-05-27T05:34:39.800Z,8.76
2023-05-27T05:35:39.807Z,8.81
2023-05-27T05:36:39.813Z,8.84
2023-05-27T05:37:39.821Z,8.88
2023-05-27T05:38:39.826Z,8.92
2023-05-27T05:39:39.831Z,8.97
2023-05-27T05:40:39.838Z,9.01
2023-05-27T05:41:39.842Z,9.03
2023-05-27T05:42:39.850Z,9.09
2023-05-27T05:43:39.856Z,9.15
2023-05-27T05:44:39.862Z,9.17
2023-05-27T05:45:39.879Z,9.18
2023-05-27T05:46:39.939Z,9.23
2023-05-27T05:47:39.895Z,9.21
2023-05-27T05:48:39.894Z,9.22
2023-05-27T05:49:39.901Z,9.23
2023-05-27T05:50:39.907Z,9.22
2023-05-27T05:51:39.904Z,9.22
2023-05-27T05:52:39.909Z,9.23
2023-05-27T05:53:39.919Z,9.27
2023-05-27T05:54:39.922Z,9.29
2023-05-27T05:55:39.929Z,9.31
2023-05-27T05:56:39.932Z,9.33
2023-05-27T05:57:39.953Z,9.35
2023-05-27T05:58:39.943Z,9.40
2023-05-27T05:59:39.950Z,9.46
2023-05-27T06:00:39.959Z,9.48
2023-05-27T06:01:39.961Z,9.49
2023-05-27T06:02:40.084Z,9.51
2023-05-27T06:03:40.203Z,9.53
2023-05-27T06:04:39.999Z,9.56
2023-05-27T06:05:40.000Z,9.59
2023-05-27T06:06:39.994Z,9.66
2023-05-27T06:07:40.005Z,9.69
2023-05-27T06:08:40.013Z,9.76
2023-05-27T06:09:40.026Z,9.78
2023-05-27T06:10:40.034Z,9.84
2023-05-27T06:11:40.054Z,9.92
2023-05-27T06:12:40.099Z,10.03
2023-05-27T06:13:40.064Z,10.02
2023-05-27T06:14:40.064Z,10.09
2023-05-27T06:15:40.083Z,10.11
2023-05-27T06:16:40.127Z,10.20
2023-05-27T06:17:40.104Z,10.20
2023-05-27T06:18:40.104Z,10.23
2023-05-27T06:19:40.118Z,10.21
2023-05-27T06:20:40.140Z,10.23
2023-05-27T06:21:40.124Z,10.24
2023-05-27T06:22:40.130Z,10.25
2023-05-27T06:23:40.137Z,10.30
2023-05-27T06:24:40.143Z,10.32
2023-05-27T06:25:40.148Z,10.37
2023-05-27T06:26:40.155Z,10.38
2023-05-27T06:27:40.163Z,10.42
2023-05-27T06:28:40.166Z,10.42
2023-05-27T06:29:40.182Z,10.43
2023-05-27T06:30:40.180Z,10.45
2023-05-27T06:31:40.203Z,10.48
2023-05-27T06:32:40.262Z,10.51
2023-05-27T06:33:40.198Z,10.58
2023-05-27T06:34:40.207Z,10.63
2023-05-27T06:35:40.210Z,10.66
2023-05-27T06:36:40.217Z,10.71
2023-05-27T06:37:40.224Z,10.77
2023-05-27T06:38:40.229Z,10.77
2023-05-27T06:39:40.238Z,10.82
2023-05-27T06:40:40.275Z,10.86
2023-05-27T06:41:40.249Z,10.86
2023-05-27T06:42:40.256Z,10.87
2023-05-27T06:43:40.267Z,10.90
2023-05-27T06:44:40.274Z,10.95
2023-05-27T06:45:49.011Z,10.97
2023-05-27T06:46:40.323Z,11.01
2023-05-27T06:47:40.317Z,11.04
2023-05-27T06:48:40.298Z,11.08
2023-05-27T06:49:40.297Z,11.12
2023-05-27T06:50:40.307Z,11.16
2023-05-27T06:51:40.319Z,11.21
2023-05-27T06:52:40.318Z,11.24
2023-05-27T06:53:40.325Z,11.29
2023-05-27T06:54:40.330Z,11.36
2023-05-27T06:55:40.339Z,11.38
2023-05-27T06:56:40.344Z,11.42
2023-05-27T06:57:40.357Z,11.44
2023-05-27T06:58:40.359Z,11.50
2023-05-27T06:59:40.367Z,11.55
2023-05-27T07:00:40.379Z,11.60
2023-05-27T07:01:40.473Z,11.64
2023-05-27T07:02:40.393Z,11.69
2023-05-27T07:03:40.401Z,11.72
2023-05-27T07:04:40.404Z,11.76
2023-05-27T07:05:40.438Z,11.78
2023-05-27T07:06:40.413Z,11.84
2023-05-27T07:07:40.426Z,11.90
2023-05-27T07:08:40.424Z,11.90
2023-05-27T07:09:40.432Z,11.91
2023-05-27T07:10:40.447Z,11.95
2023-05-27T07:11:40.445Z,11.98
2023-05-27T07:12:40.450Z,12.00
2023-05-27T07:13:40.454Z,12.04
2023-05-27T07:14:40.459Z,12.06
2023-05-27T07:15:40.498Z,12.09
2023-05-27T07:16:40.475Z,12.13
2023-05-27T07:17:40.509Z,12.16
2023-05-27T07:18:40.491Z,12.21
2023-05-27T07:19:40.498Z,12.24
2023-05-27T07:20:40.546Z,12.28
2023-05-27T07:21:40.506Z,12.32
2023-05-27T07:22:40.513Z,12.37
2023-05-27T07:23:40.522Z,12.40
2023-05-27T07:24:40.523Z,12.43
2023-05-27T07:25:40.525Z,12.48
2023-05-27T07:26:40.552Z,12.53
2023-05-27T07:27:40.544Z,12.58
2023-05-27T07:28:40.555Z,12.59
2023-05-27T07:29:40.561Z,12.65
2023-05-27T07:30:40.578Z,12.68
2023-05-27T07:31:40.627Z,12.72
2023-05-27T07:32:40.614Z,12.73
2023-05-27T07:33:40.592Z,12.76
2023-05-27T07:34:40.600Z,12.79
2023-05-27T07:35:40.601Z,12.82
2023-05-27T07:36:40.613Z,12.86
2023-05-27T07:37:40.646Z,12.90
2023-05-27T07:38:40.621Z,12.92
2023-05-27T07:39:40.629Z,12.96
2023-05-27T07:40:40.641Z,13.00
2023-05-27T07:41:40.641Z,13.06
2023-05-27T07:42:40.647Z,13.09
2023-05-27T07:43:40.661Z,13.12
2023-05-27T07:44:40.660Z,13.14
2023-05-27T07:45:40.667Z,13.17
2023-05-27T07:46:40.697Z,13.22
2023-05-27T07:47:40.697Z,13.26
2023-05-27T07:48:40.683Z,13.29
2023-05-27T07:49:41.642Z,13.31
2023-05-27T07:50:40.698Z,13.37
2023-05-27T07:51:40.703Z,13.40
2023-05-27T07:52:40.748Z,13.45
2023-05-27T07:53:40.727Z,13.50
2023-05-27T07:54:47.400Z,13.53
2023-05-27T07:55:40.730Z,13.56
2023-05-27T07:56:40.735Z,13.60
2023-05-27T07:57:40.747Z,13.60
2023-05-27T07:58:40.748Z,13.64
2023-05-27T07:59:40.759Z,13.66
2023-05-27T08:00:40.823Z,13.67
2023-05-27T08:01:40.776Z,13.69
2023-05-27T08:02:40.813Z,13.71
2023-05-27T08:03:40.818Z,13.73
2023-05-27T08:04:40.812Z,13.76
2023-05-27T08:05:40.787Z,13.78
2023-05-27T08:06:40.802Z,13.80
2023-05-27T08:07:40.812Z,13.82
2023-05-27T08:08:40.812Z,13.85
2023-05-27T08:09:40.837Z,13.89
2023-05-27T08:10:40.825Z,13.93
2023-05-27T08:11:40.837Z,13.97
2023-05-27T08:12:40.840Z,13.99
2023-05-27T08:13:40.842Z,14.04
2023-05-27T08:14:40.857Z,14.10
2023-05-27T08:15:40.858Z,14.11
2023-05-27T08:16:42.106Z,14.11
2023-05-27T08:17:40.924Z,14.10
2023-05-27T08:18:40.937Z,14.13
2023-05-27T08:19:40.887Z,14.20
2023-05-27T08:20:40.942Z,14.23
2023-05-27T08:21:40.897Z,14.28
2023-05-27T08:22:40.906Z,14.35
2023-05-27T08:23:40.917Z,14.36
2023-05-27T08:24:40.918Z,14.42
2023-05-27T08:25:40.926Z,14.47
2023-05-27T08:26:40.930Z,14.51
2023-05-27T08:27:40.940Z,14.59
2023-05-27T08:28:40.944Z,14.62
2023-05-27T08:29:40.951Z,14.70
2023-05-27T08:30:40.961Z,14.76
2023-05-27T08:31:41.001Z,14.85
2023-05-27T08:32:40.974Z,14.90
2023-05-27T08:33:40.975Z,14.96
2023-05-27T08:34:40.982Z,14.97
2023-05-27T08:35:40.989Z,14.97
2023-05-27T08:36:40.995Z,15.00
2023-05-27T08:37:41.003Z,15.06
2023-05-27T08:38:41.013Z,15.06
2023-05-27T08:39:41.014Z,15.07
2023-05-27T08:40:41.025Z,15.07
2023-05-27T08:41:41.027Z,15.13
2023-05-27T08:42:41.034Z,15.14
2023-05-27T08:43:41.070Z,15.21
2023-05-27T08:44:41.046Z,15.24
2023-05-27T08:45:41.166Z,15.30
2023-05-27T08:46:41.125Z,15.40
2023-05-27T08:47:41.109Z,15.50
2023-05-27T08:48:41.073Z,15.58
2023-05-27T08:49:41.077Z,15.68
2023-05-27T08:50:41.090Z,15.72
2023-05-27T08:51:41.089Z,15.81
2023-05-27T08:52:41.102Z,15.95
2023-05-27T08:53:41.112Z,16.07
2023-05-27T08:54:41.122Z,16.19
2023-05-27T08:55:41.126Z,16.33
2023-05-27T08:56:41.186Z,16.46
2023-05-27T08:57:41.142Z,16.58
2023-05-27T08:58:41.148Z,16.70
2023-05-27T08:59:41.155Z,16.81
2023-05-27T09:00:41.164Z,16.91
2023-05-27T09:01:41.203Z,17.06
2023-05-27T09:02:41.244Z,17.11
2023-05-27T09:03:41.219Z,17.19
2023-05-27T09:04:41.204Z,17.21
2023-05-27T09:05:41.201Z,17.25
2023-05-27T09:06:41.215Z,17.32
2023-05-27T09:07:41.221Z,17.43
2023-05-27T09:08:50.601Z,17.52
2023-05-27T09:09:41.239Z,17.59
2023-05-27T09:10:41.282Z,17.64
2023-05-27T09:11:41.255Z,17.66
2023-05-27T09:12:41.262Z,17.74
2023-05-27T09:13:41.268Z,17.82
2023-05-27T09:14:41.275Z,17.85
2023-05-27T09:15:41.282Z,17.91
2023-05-27T09:16:41.304Z,17.94
2023-05-27T09:17:41.304Z,17.97
2023-05-27T09:18:41.332Z,18.01
2023-05-27T09:19:45.165Z,18.02
2023-05-27T09:20:41.343Z,18.03
2023-05-27T09:21:41.341Z,18.07
2023-05-27T09:22:41.355Z,18.03
2023-05-27T09:23:41.360Z,17.95
2023-05-27T09:24:41.367Z,17.92
2023-05-27T09:25:41.369Z,17.84
2023-05-27T09:26:41.375Z,17.81
2023-05-27T09:27:41.392Z,17.70
2023-05-27T09:28:41.513Z,17.64
2023-05-27T09:29:41.390Z,17.58
2023-05-27T09:30:41.397Z,17.48
2023-05-27T09:31:41.435Z,17.38
2023-05-27T09:32:41.454Z,17.33
2023-05-27T09:33:41.457Z,17.30
2023-05-27T09:34:41.434Z,17.23
2023-05-27T09:35:41.439Z,17.17
2023-05-27T09:36:41.444Z,17.13
2023-05-27T09:37:41.463Z,17.11
2023-05-27T09:38:41.461Z,17.12
2023-05-27T09:39:41.468Z,17.04
2023-05-27T09:40:41.495Z,17.02
2023-05-27T09:41:41.486Z,16.97
2023-05-27T09:42:41.486Z,16.94
2023-05-27T09:43:44.556Z,16.95
2023-05-27T09:44:41.499Z,16.92
2023-05-27T09:45:41.534Z,16.98
2023-05-27T09:46:41.512Z,17.01
2023-05-27T09:47:41.529Z,17.02
2023-05-27T09:48:41.532Z,16.99
2023-05-27T09:49:41.533Z,16.95
2023-05-27T09:50:41.542Z,16.92
2023-05-27T09:51:41.547Z,17.00
2023-05-27T09:52:44.199Z,16.99
2023-05-27T09:53:41.561Z,16.99
2023-05-27T09:54:41.570Z,17.03
2023-05-27T09:55:41.583Z,17.14
2023-05-27T09:56:41.578Z,17.22
2023-05-27T09:57:41.584Z,17.28
2023-05-27T09:58:41.596Z,17.33
2023-05-27T09:59:41.701Z,17.37
2023-05-27T10:00:41.607Z,17.40
2023-05-27T10:01:41.658Z,17.48
2023-05-27T10:02:41.661Z,17.52
2023-05-27T10:03:41.631Z,17.57
2023-05-27T10:04:41.664Z,17.60
2023-05-27T10:05:41.755Z,17.65
2023-05-27T10:06:41.656Z,17.66
2023-05-27T10:07:45.568Z,17.67
2023-05-27T10:08:41.661Z,17.70
2023-05-27T10:09:41.670Z,17.73
2023-05-27T10:10:41.676Z,17.75
2023-05-27T10:11:41.681Z,17.82
2023-05-27T10:12:41.689Z,17.89
2023-05-27T10:13:41.692Z,17.94
2023-05-27T10:14:41.702Z,18.01
2023-05-27T10:15:41.896Z,18.09
2023-05-27T10:16:41.728Z,18.15
2023-05-27T10:17:41.812Z,18.21
2023-05-27T10:18:41.740Z,18.28
2023-05-27T10:19:41.748Z,18.36
2023-05-27T10:20:41.851Z,18.40
2023-05-27T10:21:41.760Z,18.42
2023-05-27T10:22:43.295Z,18.48
2023-05-27T10:23:41.777Z,18.49
2023-05-27T10:24:41.782Z,18.53
2023-05-27T10:25:41.787Z,18.57
2023-05-27T10:26:41.813Z,18.61
2023-05-27T10:27:41.803Z,18.62
2023-05-27T10:28:41.816Z,18.62
2023-05-27T10:29:41.825Z,18.64
2023-05-27T10:30:41.822Z,18.63
2023-05-27T10:31:41.941Z,18.64
2023-05-27T10:32:41.874Z,18.67
2023-05-27T10:33:41.848Z,18.69
2023-05-27T10:34:41.850Z,18.67
2023-05-27T10:35:41.856Z,18.67
2023-05-27T10:36:41.865Z,18.67
2023-05-27T10:37:41.869Z,18.70
2023-05-27T10:38:41.884Z,18.76
2023-05-27T10:39:41.887Z,18.78
2023-05-27T10:40:41.894Z,18.80
2023-05-27T10:41:41.899Z,18.78
2023-05-27T10:42:41.906Z,18.77
2023-05-27T10:43:41.917Z,18.76
2023-05-27T10:44:41.924Z,18.78
2023-05-27T10:45:41.976Z,18.79
2023-05-27T10:46:42.073Z,18.75
2023-05-27T10:47:41.964Z,18.74
2023-05-27T10:48:41.957Z,18.73
2023-05-27T10:49:41.967Z,18.67
2023-05-27T10:50:41.977Z,18.59
2023-05-27T10:51:41.994Z,18.54
2023-05-27T10:52:41.994Z,18.52
2023-05-27T10:53:42.001Z,18.50
2023-05-27T10:54:42.016Z,18.49
2023-05-27T10:55:42.029Z,18.54
2023-05-27T10:56:42.029Z,18.59
2023-05-27T10:57:42.041Z,18.63
2023-05-27T10:58:42.040Z,18.66
2023-05-27T10:59:42.058Z,18.70
2023-05-27T11:00:42.055Z,18.81
2023-05-27T11:01:42.112Z,18.85
2023-05-27T11:02:42.075Z,18.94
2023-05-27T11:03:42.127Z,19.04
2023-05-27T11:04:42.093Z,19.12
2023-05-27T11:05:42.109Z,19.21
2023-05-27T11:06:42.118Z,19.32
2023-05-27T11:07:42.126Z,19.38
2023-05-27T11:08:42.132Z,19.44
2023-05-27T11:09:42.137Z,19.48
2023-05-27T11:10:42.142Z,19.57
2023-05-27T11:11:42.149Z,19.62
2023-05-27T11:12:42.162Z,19.63
2023-05-27T11:13:42.734Z,19.66
2023-05-27T11:14:42.177Z,19.68
2023-05-27T11:15:42.186Z,19.73
2023-05-27T11:16:42.256Z,19.76
2023-05-27T11:17:42.249Z,19.72
2023-05-27T11:18:42.210Z,19.79
2023-05-27T11:19:42.217Z,19.79
2023-05-27T11:20:42.233Z,19.81
2023-05-27T11:21:42.231Z,19.69
2023-05-27T11:22:42.240Z,19.70
2023-05-27T11:23:42.259Z,19.72
2023-05-27T11:24:42.258Z,19.83
2023-05-27T11:25:42.274Z,19.92
2023-05-27T11:26:42.281Z,19.99
2023-05-27T11:27:42.294Z,20.07
2023-05-27T11:28:42.295Z,20.08
2023-05-27T11:29:42.303Z,20.12
2023-05-27T11:30:42.311Z,20.19
2023-05-27T11:31:42.334Z,20.28
2023-05-27T11:32:44.220Z,20.39
2023-05-27T11:34:42.348Z,20.60
2023-05-27T11:35:42.361Z,20.72
2023-05-27T11:36:42.372Z,20.78
2023-05-27T11:37:42.381Z,20.90
2023-05-27T11:38:42.384Z,20.98
2023-05-27T11:39:42.396Z,21.06
2023-05-27T11:40:42.396Z,21.12
2023-05-27T11:41:42.409Z,21.16
2023-05-27T11:42:42.410Z,21.20
2023-05-27T11:43:42.418Z,21.22
2023-05-27T11:44:42.428Z,21.18
2023-05-27T11:45:42.449Z,21.15
2023-05-27T11:46:42.462Z,21.12
2023-05-27T11:47:42.538Z,20.94
2023-05-27T11:48:42.456Z,20.79
2023-05-27T11:49:42.462Z,20.63
2023-05-27T11:50:43.171Z,20.50
2023-05-27T11:51:42.485Z,20.50
2023-05-27T11:52:42.483Z,20.48
2023-05-27T11:53:42.488Z,20.49
2023-05-27T11:54:46.648Z,20.42
2023-05-27T11:55:42.502Z,20.35
2023-05-27T11:56:42.509Z,20.26
2023-05-27T11:57:42.519Z,20.23
2023-05-27T11:58:42.529Z,20.16
2023-05-27T11:59:42.537Z,20.09
2023-05-27T12:00:43.588Z,19.99
2023-05-27T12:01:42.562Z,19.82
2023-05-27T12:02:42.834Z,19.67
2023-05-27T12:03:42.748Z,19.55
2023-05-27T12:04:42.590Z,19.44
2023-05-27T12:05:42.659Z,19.40
2023-05-27T12:06:42.600Z,19.36
2023-05-27T12:07:42.609Z,19.36
2023-05-27T12:08:42.625Z,19.42
2023-05-27T12:09:42.634Z,19.34
2023-05-27T12:10:42.658Z,19.35
2023-05-27T12:11:42.683Z,19.43
2023-05-27T12:12:42.657Z,19.51
2023-05-27T12:13:42.671Z,19.55
2023-05-27T12:14:42.670Z,19.60
2023-05-27T12:15:42.683Z,19.62
2023-05-27T12:16:42.721Z,19.61
2023-05-27T12:17:42.715Z,19.65
2023-05-27T12:18:42.703Z,19.72
2023-05-27T12:19:42.714Z,19.78
2023-05-27T12:20:42.785Z,19.85
2023-05-27T12:21:42.733Z,19.92
2023-05-27T12:22:42.739Z,20.00
2023-05-27T12:23:42.746Z,20.06
2023-05-27T12:24:42.764Z,20.16
2023-05-27T12:25:42.761Z,20.22
2023-05-27T12:26:42.779Z,20.29
2023-05-27T12:27:42.785Z,20.34
2023-05-27T12:28:42.785Z,20.39
2023-05-27T12:29:42.806Z,20.49
2023-05-27T12:30:43.637Z,20.54
2023-05-27T12:31:42.864Z,20.60
2023-05-27T12:32:42.849Z,20.63
2023-05-27T12:33:42.837Z,20.66
2023-05-27T12:34:42.832Z,20.69
2023-05-27T12:35:42.841Z,20.70
2023-05-27T12:36:42.852Z,20.76
2023-05-27T12:37:42.873Z,20.75
2023-05-27T12:38:42.870Z,20.82
2023-05-27T12:39:42.878Z,20.80
2023-05-27T12:40:42.888Z,20.78
2023-05-27T12:41:42.893Z,20.82
2023-05-27T12:42:42.909Z,20.86
2023-05-27T12:43:42.910Z,20.89
2023-05-27T12:44:42.916Z,20.97
2023-05-27T12:45:42.927Z,20.91
2023-05-27T12:46:42.980Z,20.82
2023-05-27T12:47:43.022Z,20.77
2023-05-27T12:48:42.959Z,20.74
2023-05-27T12:49:42.972Z,20.76
2023-05-27T12:50:42.974Z,20.75
2023-05-27T12:51:42.982Z,20.75
2023-05-27T12:52:42.989Z,20.79
2023-05-27T12:53:42.999Z,20.84
2023-05-27T12:54:43.005Z,20.93
2023-05-27T12:55:43.018Z,20.96
2023-05-27T12:56:43.023Z,20.94
2023-05-27T12:57:43.032Z,20.88
2023-05-27T12:58:43.061Z,20.87
2023-05-27T12:59:43.050Z,20.76
2023-05-27T13:00:43.070Z,20.68
2023-05-27T13:01:43.072Z,20.65
2023-05-27T13:02:43.122Z,20.58
2023-05-27T13:03:43.095Z,20.58
2023-05-27T13:04:48.788Z,20.55
2023-05-27T13:05:48.934Z,20.55
2023-05-27T13:06:48.832Z,20.51
2023-05-27T13:07:48.845Z,20.51
2023-05-27T13:08:48.854Z,20.48
2023-05-27T13:09:48.888Z,20.44
2023-05-27T13:10:48.908Z,20.40
2023-05-27T13:11:48.929Z,20.36
2023-05-27T13:12:48.927Z,20.35
2023-05-27T13:13:48.947Z,20.29
2023-05-27T13:14:48.955Z,20.27
2023-05-27T13:15:49.176Z,20.27
2023-05-27T13:19:35.362Z,20.02
2023-05-27T13:20:34.210Z,20.02
2023-05-27T13:21:34.195Z,19.90
2023-05-27T13:22:34.207Z,19.89
2023-05-27T13:23:34.220Z,19.84
2023-05-27T13:24:34.240Z,19.80
2023-05-27T13:25:34.249Z,19.81
2023-05-27T13:26:34.367Z,19.76
2023-05-27T13:27:34.276Z,19.72
2023-05-27T13:28:34.293Z,19.71
2023-05-27T13:29:34.304Z,19.73
2023-05-27T13:30:34.320Z,19.71
2023-05-27T13:31:34.350Z,19.68
2023-05-27T13:32:34.406Z,19.75
2023-05-27T13:33:34.362Z,19.77
2023-05-27T13:34:34.366Z,19.79
2023-05-27T13:35:34.367Z,19.76
2023-05-27T13:36:34.391Z,19.78
2023-05-27T13:37:34.399Z,19.79
2023-05-27T13:38:34.413Z,19.85
2023-05-27T13:39:34.423Z,19.90
2023-05-27T13:40:34.434Z,19.90
2023-05-27T13:41:34.445Z,19.89